Time;durP1;ratioP1;P1;durP2;ratioP2;P2;SDS_P1;SDS_P2;PMS_P1;PMS_P2;Temp;Humidity;BMP_temperature;BMP_pressure;BME280_temperature;BME280_humidity;BME280_pressure;Samples;Min_cycle;Max_cycle;Signal;HPM_P1;HPM_P2
2022/12/25 00:01:38;;;;;;;4.68;2.45;;;;;;;1.14;90.66;101313.03;5098787;28;20031;-74
2022/12/25 00:04:04;;;;;;;5.18;2.70;;;;;;;1.14;90.50;101310.38;5087301;28;20535;-74
2022/12/25 00:06:29;;;;;;;6.40;2.58;;;;;;;1.09;90.37;101300.16;5109984;28;20061;-74
2022/12/25 00:08:55;;;;;;;4.53;2.63;;;;;;;1.11;90.55;101306.16;5094531;28;20027;-74
2022/12/25 00:11:20;;;;;;;6.07;2.78;;;;;;;1.13;90.41;101311.34;5103511;28;20031;-74
2022/12/25 00:13:50;;;;;;;9.55;6.25;;;;;;;1.08;90.52;101308.22;5115848;28;20514;-74
2022/12/25 00:16:19;;;;;;;36.10;17.58;;;;;;;1.11;90.80;101310.63;5105967;28;20055;-74
2022/12/25 00:18:45;;;;;;;26.13;11.95;;;;;;;1.10;90.41;101308.94;5122054;28;20047;-74
2022/12/25 00:21:11;;;;;;;7.93;4.15;;;;;;;1.15;90.69;101306.75;5106244;28;20406;-74
2022/12/25 00:23:37;;;;;;;3.85;2.63;;;;;;;1.22;90.19;101315.88;5118312;28;20035;-73
2022/12/25 00:26:07;;;;;;;2.90;2.00;;;;;;;1.29;90.23;101311.78;5106882;28;20030;-74
2022/12/25 00:28:34;;;;;;;3.90;2.05;;;;;;;1.32;89.88;101308.84;5095335;28;20454;-73
2022/12/25 00:31:03;;;;;;;3.13;1.88;;;;;;;1.32;90.06;101311.50;5113813;28;20039;-74
2022/12/25 00:33:29;;;;;;;4.28;2.30;;;;;;;1.26;90.04;101298.78;5104631;28;20031;-73
2022/12/25 00:36:06;;;;;;;3.13;2.40;;;;;;;1.23;90.16;101283.13;5116509;28;20024;-73
2022/12/25 00:38:34;;;;;;;3.58;1.67;;;;;;;1.18;89.97;101280.81;5109260;28;20030;-73
2022/12/25 00:41:06;;;;;;;2.15;1.45;;;;;;;1.26;90.82;101303.19;5108816;28;20085;-74
2022/12/25 00:43:31;;;;;;;2.40;1.48;;;;;;;1.41;89.97;101313.38;5116186;28;20058;-74
2022/12/25 00:45:59;;;;;;;2.80;1.63;;;;;;;1.52;90.16;101316.97;5087129;28;20031;-74
2022/12/25 00:48:26;;;;;;;2.50;1.20;;;;;;;1.55;90.26;101312.25;5113868;28;20024;-73
2022/12/25 00:50:53;;;;;;;2.97;1.77;;;;;;;1.56;90.51;101318.41;5112706;28;20020;-74
2022/12/25 00:53:19;;;;;;;1.58;1.13;;;;;;;1.56;90.11;101315.75;5104376;28;20038;-74
2022/12/25 00:55:54;;;;;;;2.40;1.15;;;;;;;1.63;90.15;101315.09;5117440;28;20106;-74
2022/12/25 00:58:21;;;;;;;2.40;1.30;;;;;;;1.63;90.12;101316.91;5106170;28;20383;-74
2022/12/25 01:00:48;;;;;;;1.92;1.08;;;;;;;1.67;89.98;101313.03;5108778;28;20028;-74
2022/12/25 01:03:14;;;;;;;1.70;1.10;;;;;;;1.38;90.50;101268.56;5113845;28;20053;-74
2022/12/25 01:05:39;;;;;;;2.63;1.40;;;;;;;1.50;90.07;101274.66;5101300;28;20034;-74
2022/12/25 01:08:05;;;;;;;2.30;1.20;;;;;;;1.58;90.12;101296.06;5096090;28;20024;-74
2022/12/25 01:10:30;;;;;;;2.05;1.30;;;;;;;1.60;90.01;101288.84;5107014;28;20035;-73
2022/12/25 01:12:55;;;;;;;2.05;1.38;;;;;;;1.78;90.44;101307.66;5106190;28;20068;-74
2022/12/25 01:15:21;;;;;;;2.33;1.10;;;;;;;1.63;91.30;101314.28;5114579;28;20055;-73
2022/12/25 01:17:47;;;;;;;2.58;1.55;;;;;;;1.73;90.67;101315.19;5101012;28;20215;-74
2022/12/25 01:20:14;;;;;;;2.40;1.40;;;;;;;1.79;90.88;101300.56;5094550;28;20058;-73
2022/12/25 01:22:40;;;;;;;1.60;1.30;;;;;;;1.70;90.40;101283.59;5106338;28;20024;-74
2022/12/25 01:25:10;;;;;;;2.15;1.20;;;;;;;1.91;90.33;101304.81;5102687;28;20038;-75
2022/12/25 01:27:35;;;;;;;1.60;1.05;;;;;;;1.72;90.20;101286.94;5114820;28;20033;-74
2022/12/25 01:30:01;;;;;;;1.77;1.20;;;;;;;1.88;90.59;101311.22;5100706;28;20059;-74
2022/12/25 01:32:29;;;;;;;1.95;1.08;;;;;;;1.80;90.86;101303.06;5108796;28;20088;-74
2022/12/25 01:34:56;;;;;;;1.40;0.98;;;;;;;1.94;90.42;101311.69;5109406;28;20054;-74
2022/12/25 01:37:25;;;;;;;2.13;1.27;;;;;;;2.00;90.19;101316.47;5101753;28;20032;-74
2022/12/25 01:39:50;;;;;;;2.53;1.10;;;;;;;1.91;90.61;101309.28;5112536;28;20024;-74
2022/12/25 01:42:22;;;;;;;2.53;0.90;;;;;;;1.81;91.03;101309.22;5103766;28;20036;-73
2022/12/25 01:44:50;;;;;;;2.10;1.00;;;;;;;2.02;91.03;101326.00;5107206;28;20032;-74
2022/12/25 01:47:17;;;;;;;2.33;0.98;;;;;;;1.98;91.02;101323.69;5112676;28;20090;-74
2022/12/25 01:49:47;;;;;;;1.33;1.00;;;;;;;1.83;90.47;101289.53;5099321;28;20032;-74
2022/12/25 01:52:22;;;;;;;3.28;1.08;;;;;;;1.98;90.66;101313.09;5113667;28;20099;-73
2022/12/25 01:54:58;;;;;;;2.63;1.20;;;;;;;2.06;90.92;101332.72;5109315;28;20023;-73
2022/12/25 01:57:32;;;;;;;2.35;1.10;;;;;;;2.10;91.01;101328.81;5103790;28;20028;-74
2022/12/25 02:00:18;;;;;;;1.80;1.00;;;;;;;2.10;90.66;101339.44;5087713;28;20019;-74
2022/12/25 02:02:44;;;;;;;1.73;1.10;;;;;;;2.10;90.58;101328.81;5071694;28;20033;-74
2022/12/25 02:05:39;;;;;;;2.35;1.27;;;;;;;2.25;91.05;101339.94;5092834;28;20306;-74
2022/12/25 02:08:10;;;;;;;2.35;1.00;;;;;;;2.04;91.94;101328.50;5072175;28;20039;-74
2022/12/25 02:10:38;;;;;;;1.95;1.10;;;;;;;2.03;91.26;101313.56;5070208;28;20055;-74
2022/12/25 02:13:04;;;;;;;1.70;0.95;;;;;;;2.05;91.40;101317.75;5068393;28;20075;-74
2022/12/25 02:15:52;;;;;;;1.50;1.02;;;;;;;1.81;92.96;101314.53;5076890;28;20056;-74
2022/12/25 02:18:43;;;;;;;1.77;1.00;;;;;;;2.04;93.11;101339.09;5084438;28;20048;-74
2022/12/25 02:21:14;;;;;;;1.50;0.90;;;;;;;1.95;93.26;101343.38;5046847;28;20124;-74
2022/12/25 02:23:54;;;;;;;2.35;0.80;;;;;;;1.88;94.24;101335.09;5057280;28;20037;-74
2022/12/25 02:26:38;;;;;;;2.00;0.80;;;;;;;2.02;93.68;101338.38;5064406;28;20055;-74
2022/12/25 02:29:14;;;;;;;2.53;0.90;;;;;;;2.02;93.79;101338.38;5064493;28;20502;-74
2022/12/25 02:32:09;;;;;;;2.15;0.90;;;;;;;2.15;93.65;101333.72;5073840;28;20423;-74
2022/12/25 02:34:39;;;;;;;1.67;0.70;;;;;;;2.06;93.21;101305.31;5021635;28;20077;-74
2022/12/25 02:37:27;;;;;;;2.33;0.73;;;;;;;2.12;93.55;101326.03;5090872;28;20036;-74
2022/12/25 02:40:14;;;;;;;3.30;0.90;;;;;;;2.14;93.57;101323.25;5080808;28;20032;-74
2022/12/25 03:08:09;;;;;;;0.95;0.80;;;;;;;2.26;93.69;101317.72;5088148;28;20111;-74
2022/12/25 03:13:28;;;;;;;2.08;0.70;;;;;;;2.11;94.64;101309.25;5114742;28;20051;-74
2022/12/25 03:18:38;;;;;;;1.45;0.90;;;;;;;2.43;94.02;101318.06;5110302;28;20089;-73
2022/12/25 03:26:54;;;;;;;1.42;0.73;;;;;;;2.51;93.12;101297.81;5073216;28;20157;-75
2022/12/25 03:32:25;;;;;;;1.00;0.60;;;;;;;2.48;94.13;101307.88;5105227;28;20049;-75
2022/12/25 03:35:24;;;;;;;1.20;0.88;;;;;;;2.42;94.60;101308.41;5108081;28;20028;-74
2022/12/25 04:37:00;;;;;;;1.05;0.60;;;;;;;3.50;92.41;101250.78;5106142;28;20043;-75
2022/12/25 04:39:26;;;;;;;1.40;0.90;;;;;;;3.58;91.91;101250.09;5112183;28;20043;-75
2022/12/25 04:41:53;;;;;;;2.50;0.80;;;;;;;3.41;92.67;101222.38;5101087;28;20036;-74
2022/12/25 04:44:18;;;;;;;0.90;0.70;;;;;;;3.40;92.66;101223.34;5109918;28;20490;-75
2022/12/25 04:46:44;;;;;;;1.40;0.75;;;;;;;3.25;92.99;101204.34;5107639;28;20047;-75
2022/12/25 04:49:09;;;;;;;0.98;0.70;;;;;;;3.62;92.40;101247.97;5102987;28;20031;-74
2022/12/25 04:51:35;;;;;;;1.60;0.68;;;;;;;3.60;93.26;101234.78;5096883;28;20031;-75
2022/12/25 04:54:01;;;;;;;2.20;0.80;;;;;;;3.58;93.60;101239.44;5101713;28;20028;-75
2022/12/25 04:56:26;;;;;;;1.55;0.80;;;;;;;3.25;93.81;101201.69;5110564;28;20460;-75
2022/12/25 04:58:52;;;;;;;1.98;0.93;;;;;;;3.71;93.21;101224.00;5109297;28;20547;-73
2022/12/25 05:01:17;;;;;;;3.08;1.00;;;;;;;3.29;94.44;101212.88;5085517;28;20040;-75
2022/12/25 05:03:42;;;;;;;1.58;0.82;;;;;;;3.49;94.81;101219.84;5098379;28;20056;-75
2022/12/25 05:06:08;;;;;;;2.25;1.08;;;;;;;3.27;95.96;101212.16;5085095;28;20392;-75
2022/12/25 05:08:34;;;;;;;1.25;0.80;;;;;;;3.52;94.71;101210.72;5111212;28;20039;-73
2022/12/25 05:11:05;;;;;;;2.00;0.90;;;;;;;3.45;95.02;101207.81;5110187;28;20027;-75
2022/12/25 05:13:33;;;;;;;2.03;0.93;;;;;;;3.36;96.20;101197.19;5102475;28;20517;-75
2022/12/25 05:15:58;;;;;;;1.00;0.60;;;;;;;3.24;95.41;101172.56;5084256;28;20051;-75
2022/12/25 05:18:24;;;;;;;2.85;0.80;;;;;;;3.37;96.18;101212.97;5111824;28;20097;-74
2022/12/25 05:20:58;;;;;;;1.40;0.90;;;;;;;3.56;95.04;101200.66;5106938;28;20027;-75
2022/12/25 05:23:23;;;;;;;1.55;0.80;;;;;;;3.41;94.63;101163.00;5117332;28;20092;-75
2022/12/25 05:25:49;;;;;;;3.30;1.00;;;;;;;3.80;93.76;101208.97;5101070;28;20035;-75
2022/12/25 05:28:14;;;;;;;1.17;0.80;;;;;;;3.63;95.80;101207.91;5115338;28;20053;-75
2022/12/25 05:30:40;;;;;;;3.55;0.90;;;;;;;3.51;95.38;101177.97;5106099;28;20493;-73
2022/12/25 05:33:05;;;;;;;2.05;1.10;;;;;;;3.79;95.08;101211.78;5104632;28;20030;-74
2022/12/25 05:35:31;;;;;;;2.17;1.10;;;;;;;3.81;94.69;101199.16;5113598;28;20035;-76
2022/12/25 05:37:56;;;;;;;2.25;1.00;;;;;;;3.88;94.33;101197.59;5115945;28;20031;-75
2022/12/25 05:40:22;;;;;;;1.77;1.10;;;;;;;3.86;93.57;101186.25;5109153;28;20040;-74
2022/12/25 05:42:48;;;;;;;2.53;0.90;;;;;;;3.77;95.00;101201.25;5107219;28;20045;-75
2022/12/25 05:45:14;;;;;;;1.52;1.00;;;;;;;3.64;95.16;101188.31;5103761;28;20036;-74
2022/12/25 05:47:39;;;;;;;4.55;1.20;;;;;;;3.81;94.85;101185.84;5097744;28;20034;-75
2022/12/25 05:50:05;;;;;;;1.95;1.05;;;;;;;3.49;96.12;101181.75;5104071;28;20041;-75
2022/12/25 05:52:32;;;;;;;1.58;1.10;;;;;;;3.49;96.04;101174.59;5118514;28;20027;-76
2022/12/25 05:54:58;;;;;;;3.45;1.17;;;;;;;3.78;96.18;101184.34;5105062;28;20099;-74
2022/12/25 05:57:24;;;;;;;1.67;1.20;;;;;;;3.86;94.83;101165.78;5111765;28;20034;-73
2022/12/25 05:59:49;;;;;;;1.77;1.05;;;;;;;4.05;94.05;101175.53;5100267;28;20052;-75
2022/12/25 06:02:15;;;;;;;2.15;1.10;;;;;;;4.13;94.30;101177.44;5113597;28;20054;-75
2022/12/25 06:04:40;;;;;;;2.08;1.02;;;;;;;3.89;94.81;101148.69;5106980;28;20034;-73
2022/12/25 06:07:06;;;;;;;1.60;1.33;;;;;;;4.12;94.41;101160.63;5068902;28;20039;-73
2022/12/25 06:09:31;;;;;;;3.60;1.58;;;;;;;4.09;93.43;101154.78;5113230;28;20115;-73
2022/12/25 06:11:57;;;;;;;3.08;1.40;;;;;;;4.22;93.20;101181.88;5098773;28;20024;-73
2022/12/25 06:14:22;;;;;;;2.40;1.30;;;;;;;3.99;93.70;101154.81;5091697;28;20071;-73
2022/12/25 06:16:52;;;;;;;2.20;1.40;;;;;;;4.13;94.37;101183.59;5106964;28;20032;-73
2022/12/25 06:19:20;;;;;;;3.42;1.45;;;;;;;4.17;94.44;101182.34;5102463;28;20410;-73
2022/12/25 06:21:46;;;;;;;2.25;1.20;;;;;;;4.15;94.69;101181.66;5111873;28;20423;-73
2022/12/25 06:24:12;;;;;;;3.88;1.38;;;;;;;3.86;94.49;101128.53;5099932;28;20093;-73
2022/12/25 06:26:38;;;;;;;2.28;1.30;;;;;;;4.21;94.54;101197.03;5107722;28;20028;-74
2022/12/25 06:29:03;;;;;;;2.55;1.48;;;;;;;3.81;94.64;101125.50;5108551;28;20039;-73
2022/12/25 06:31:29;;;;;;;5.25;1.90;;;;;;;4.32;94.79;101200.47;5116272;28;20506;-73
2022/12/25 06:33:54;;;;;;;2.80;1.38;;;;;;;4.31;94.32;101191.66;5111793;28;20114;-73
2022/12/25 06:36:23;;;;;;;2.70;1.50;;;;;;;4.27;95.04;101200.06;5103091;28;20027;-76
2022/12/25 06:38:49;;;;;;;2.50;1.52;;;;;;;4.20;95.06;101187.34;5120726;27;20385;-76
2022/12/25 06:41:17;;;;;;;2.95;1.63;;;;;;;4.31;94.67;101204.16;5105288;28;20028;-77
2022/12/25 06:43:46;;;;;;;3.20;1.50;;;;;;;4.16;94.86;101185.13;5116197;28;20056;-77
2022/12/25 06:46:11;;;;;;;3.72;1.67;;;;;;;4.27;95.19;101208.06;5106353;28;20024;-74
2022/12/25 06:48:39;;;;;;;4.00;1.77;;;;;;;4.29;95.63;101201.63;5110065;28;20101;-74
2022/12/25 06:51:05;;;;;;;4.03;1.98;;;;;;;4.24;95.54;101191.41;5112939;28;20036;-74
2022/12/25 06:53:31;;;;;;;4.63;2.20;;;;;;;4.16;94.82;101169.16;5102806;28;20055;-74
2022/12/25 06:56:07;;;;;;;4.35;2.28;;;;;;;4.10;95.35;101162.59;5114326;28;20074;-74
2022/12/25 06:58:33;;;;;;;3.08;2.03;;;;;;;4.24;96.05;101175.44;5107122;28;20474;-73
2022/12/25 07:00:58;;;;;;;4.10;2.55;;;;;;;4.22;95.95;101169.41;5108418;28;20115;-74
2022/12/25 07:03:27;;;;;;;6.57;2.53;;;;;;;4.28;95.45;101175.13;5113731;28;20119;-74
2022/12/25 07:05:52;;;;;;;3.53;2.58;;;;;;;4.31;96.08;101181.00;5101899;28;20039;-74
2022/12/25 07:08:18;;;;;;;5.35;3.08;;;;;;;4.23;95.70;101175.56;5114716;28;20036;-75
2022/12/25 07:10:43;;;;;;;6.22;3.00;;;;;;;4.23;95.44;101178.22;5108813;28;20035;-74
2022/12/25 07:13:09;;;;;;;7.90;3.92;;;;;;;4.07;96.84;101160.22;5106741;28;20036;-75
2022/12/25 07:15:34;;;;;;;5.10;3.05;;;;;;;4.33;96.52;101183.50;5116779;28;20051;-75
2022/12/25 07:17:59;;;;;;;4.55;3.13;;;;;;;4.37;96.37;101193.72;5097900;28;20023;-74
2022/12/25 07:20:25;;;;;;;6.75;3.28;;;;;;;4.38;96.44;101195.41;5108654;28;20032;-75
2022/12/25 07:22:53;;;;;;;6.30;3.50;;;;;;;4.35;95.80;101195.69;5103645;28;20047;-74
2022/12/25 07:25:18;;;;;;;11.52;3.97;;;;;;;4.34;95.99;101179.84;5100131;28;20036;-74
2022/12/25 07:27:44;;;;;;;7.90;3.97;;;;;;;4.31;96.95;101173.00;5095818;28;20437;-75
2022/12/25 07:30:10;;;;;;;9.50;4.20;;;;;;;4.35;96.23;101181.53;5092849;28;20145;-75
2022/12/25 07:32:35;;;;;;;6.22;4.20;;;;;;;4.35;96.83;101177.03;5101851;28;20107;-75
2022/12/25 07:35:00;;;;;;;8.32;4.55;;;;;;;4.41;97.03;101181.78;5103700;28;20031;-76
2022/12/25 07:37:26;;;;;;;8.60;4.80;;;;;;;4.18;97.06;101138.72;5092056;28;20073;-74
2022/12/25 07:39:51;;;;;;;7.55;4.32;;;;;;;4.36;96.92;101173.38;5098159;28;20072;-74
2022/12/25 07:42:16;;;;;;;10.85;5.25;;;;;;;4.40;97.17;101185.44;5113661;28;20089;-74
2022/12/25 07:44:42;;;;;;;8.48;4.68;;;;;;;4.39;97.65;101181.09;5108330;28;20027;-75
2022/12/25 07:47:07;;;;;;;9.38;5.03;;;;;;;4.50;97.62;101189.84;5107359;28;20111;-75
2022/12/25 07:49:33;;;;;;;9.60;5.60;;;;;;;4.45;97.09;101192.97;5114722;28;20035;-75
2022/12/25 07:51:58;;;;;;;11.38;5.78;;;;;;;4.55;96.95;101204.41;5116745;28;20107;-75
2022/12/25 07:54:23;;;;;;;11.60;5.25;;;;;;;4.57;97.41;101204.25;5106011;28;20509;-75
2022/12/25 07:56:52;;;;;;;12.15;5.85;;;;;;;4.54;97.80;101202.75;5091712;28;20124;-75
2022/12/25 07:59:21;;;;;;;11.18;5.25;;;;;;;4.53;97.93;101187.72;5112945;28;20063;-75
2022/12/25 08:01:49;;;;;;;11.18;5.88;;;;;;;4.61;97.40;101184.31;5100340;28;20043;-75
2022/12/25 08:04:14;;;;;;;14.50;6.03;;;;;;;4.61;97.66;101192.31;5114397;28;20147;-74
2022/12/25 08:06:40;;;;;;;14.25;5.93;;;;;;;4.60;97.61;101194.16;5107348;28;20039;-77
2022/12/25 08:09:11;;;;;;;12.13;5.78;;;;;;;4.62;98.26;101186.81;5122221;27;20034;-75
2022/12/25 08:11:38;;;;;;;12.88;5.70;;;;;;;4.35;98.22;101138.91;5114170;28;20031;-75
2022/12/25 08:14:07;;;;;;;12.63;6.10;;;;;;;4.58;98.47;101189.97;5083549;28;20051;-75
2022/12/25 08:16:40;;;;;;;12.57;5.75;;;;;;;4.66;98.08;101188.19;5109705;28;20518;-75
2022/12/25 08:19:06;;;;;;;11.95;5.95;;;;;;;4.53;98.44;101171.72;5097164;28;20036;-75
2022/12/25 08:21:31;;;;;;;10.90;6.00;;;;;;;4.74;98.88;101187.47;5096012;28;20057;-75
2022/12/25 08:23:57;;;;;;;10.85;5.60;;;;;;;4.64;97.75;101152.88;5100393;28;20501;-75
2022/12/25 08:26:22;;;;;;;12.93;6.47;;;;;;;4.74;98.67;101171.47;5110745;28;20036;-75
2022/12/25 08:28:49;;;;;;;13.20;5.93;;;;;;;4.80;98.51;101175.31;5098165;28;20054;-75
2022/12/25 08:31:17;;;;;;;12.43;6.03;;;;;;;4.74;98.85;101175.97;5110918;28;20059;-75
2022/12/25 08:33:43;;;;;;;13.85;6.13;;;;;;;4.71;99.24;101167.25;5096673;28;20077;-75
2022/12/25 08:36:10;;;;;;;14.55;7.40;;;;;;;4.82;99.01;101170.69;5110376;28;20032;-75
2022/12/25 08:38:35;;;;;;;12.68;6.75;;;;;;;4.62;99.01;101146.84;5106027;28;20028;-75
2022/12/25 08:41:04;;;;;;;13.93;7.65;;;;;;;4.82;99.37;101176.03;5105555;28;20039;-75
2022/12/25 08:43:30;;;;;;;15.23;7.90;;;;;;;4.82;98.81;101173.34;5098062;28;20083;-74
2022/12/25 08:45:55;;;;;;;17.77;7.95;;;;;;;4.94;99.08;101172.16;5096584;28;20055;-75
2022/12/25 08:48:21;;;;;;;13.57;7.05;;;;;;;4.49;98.50;101093.09;5103735;28;20588;-76
2022/12/25 08:50:48;;;;;;;18.75;7.38;;;;;;;5.02;98.31;101176.69;5090436;28;20490;-75
2022/12/25 08:53:15;;;;;;;13.63;7.07;;;;;;;4.96;98.82;101170.13;5096417;28;20035;-75
2022/12/25 08:55:41;;;;;;;15.13;8.05;;;;;;;4.77;98.92;101138.31;5113463;28;20383;-75
2022/12/25 08:58:06;;;;;;;17.30;8.27;;;;;;;4.96;99.44;101178.16;5101850;28;20075;-75
2022/12/25 09:00:33;;;;;;;21.60;8.00;;;;;;;4.81;99.49;101153.84;5112115;28;20028;-75
2022/12/25 09:02:58;;;;;;;18.77;8.13;;;;;;;5.07;99.36;101193.09;5093015;28;20036;-74
2022/12/25 09:05:24;;;;;;;16.35;8.60;;;;;;;5.08;99.44;101189.44;5104357;28;20036;-74
2022/12/25 09:07:49;;;;;;;15.85;7.50;;;;;;;5.03;99.80;101191.69;5115168;28;20042;-74
2022/12/25 09:10:15;;;;;;;15.00;8.02;;;;;;;5.15;100.00;101179.81;5103155;28;20030;-73
2022/12/25 09:12:40;;;;;;;13.90;7.85;;;;;;;5.15;99.59;101188.66;5093035;28;20161;-73
2022/12/25 09:15:06;;;;;;;16.98;9.13;;;;;;;5.17;99.85;101186.66;5108306;28;20055;-70
2022/12/25 09:17:32;;;;;;;15.18;8.00;;;;;;;5.23;99.77;101187.03;5102772;28;20031;-74
2022/12/25 09:19:58;;;;;;;21.02;8.88;;;;;;;5.06;99.27;101159.38;5114135;28;20031;-73
2022/12/25 09:22:23;;;;;;;20.23;9.02;;;;;;;5.24;99.40;101186.06;5103640;28;20103;-74
2022/12/25 09:24:49;;;;;;;19.95;9.40;;;;;;;5.23;99.74;101181.69;5106190;28;20074;-71
2022/12/25 09:27:14;;;;;;;22.65;9.63;;;;;;;5.21;100.00;101184.53;5108671;28;20036;-72
2022/12/25 09:29:40;;;;;;;22.35;9.43;;;;;;;5.16;100.00;101171.63;5082466;28;20089;-72
2022/12/25 09:32:06;;;;;;;25.55;10.77;;;;;;;5.25;100.00;101185.88;5095328;28;20032;-73
2022/12/25 09:34:31;;;;;;;26.17;9.95;;;;;;;5.23;100.00;101187.03;5086207;28;20478;-74
2022/12/25 09:36:57;;;;;;;23.67;9.73;;;;;;;5.23;100.00;101187.03;5104238;28;20065;-74
2022/12/25 09:39:22;;;;;;;29.40;10.68;;;;;;;5.27;100.00;101181.25;5111428;28;20035;-73
2022/12/25 09:42:00;;;;;;;26.55;10.70;;;;;;;5.17;100.00;101154.66;5099319;28;20036;-74
2022/12/25 09:44:31;;;;;;;25.70;9.73;;;;;;;5.25;100.00;101185.06;5109363;28;20088;-73
2022/12/25 09:47:21;;;;;;;23.13;10.80;;;;;;;5.33;100.00;101180.63;5106054;28;20379;-71
2022/12/25 09:49:51;;;;;;;33.45;10.85;;;;;;;5.36;100.00;101182.13;5057680;28;20637;-73
2022/12/25 09:52:42;;;;;;;25.98;11.25;;;;;;;5.30;100.00;101167.59;5059328;28;20040;-73
2022/12/25 09:55:17;;;;;;;29.13;11.60;;;;;;;5.42;100.00;101176.16;5061506;28;20045;-73
2022/12/25 09:57:43;;;;;;;29.25;11.38;;;;;;;5.43;100.00;101183.22;5054076;28;20056;-73
2022/12/25 10:00:18;;;;;;;26.25;11.38;;;;;;;5.51;100.00;101179.75;5041307;28;20094;-72
2022/12/25 10:02:56;;;;;;;;;;;;;;;5.46;100.00;101180.19;5067031;28;20032;-73
2022/12/25 10:05:30;;;;;;;26.95;11.05;;;;;;;5.52;100.00;101186.75;5069399;28;19916;-73
2022/12/25 10:08:10;;;;;;;34.35;13.00;;;;;;;5.58;100.00;101192.28;5057728;28;20076;-74
2022/12/25 10:10:49;;;;;;;34.30;11.85;;;;;;;5.67;100.00;101197.69;5067600;28;20228;-75
2022/12/25 10:13:33;;;;;;;29.45;10.93;;;;;;;5.63;100.00;101197.19;5053726;28;20044;-74
2022/12/25 10:16:28;;;;;;;33.33;12.07;;;;;;;5.66;100.00;101191.50;5044376;28;20151;-74
2022/12/25 10:19:08;;;;;;;41.85;12.27;;;;;;;5.63;100.00;101187.34;5067873;28;20056;-74
2022/12/25 10:21:35;;;;;;;31.17;11.43;;;;;;;5.59;100.00;101177.94;5091556;28;20112;-74
2022/12/25 10:24:15;;;;;;;39.25;13.23;;;;;;;5.65;100.00;101176.47;5116186;28;20028;-75
2022/12/25 10:26:41;;;;;;;33.00;11.55;;;;;;;5.51;100.00;101159.22;5105774;28;20028;-74
2022/12/25 10:29:15;;;;;;;42.15;13.07;;;;;;;5.64;100.00;101175.66;5107107;28;20031;-75
2022/12/25 10:31:44;;;;;;;40.15;13.32;;;;;;;5.71;100.00;101173.19;5099355;28;20034;-72
2022/12/25 10:34:12;;;;;;;48.65;15.10;;;;;;;5.71;100.00;101173.19;5083193;28;20030;-72
2022/12/25 10:36:40;;;;;;;35.28;13.27;;;;;;;5.73;100.00;101168.53;5108597;28;20052;-73
2022/12/25 10:39:05;;;;;;;52.10;14.10;;;;;;;5.65;100.00;101149.78;5108299;28;20550;-74
2022/12/25 10:41:40;;;;;;;39.70;13.50;;;;;;;5.79;100.00;101157.19;5099438;28;20123;-73
2022/12/25 10:44:20;;;;;;;47.45;14.02;;;;;;;5.62;100.00;101156.28;5109319;28;20103;-73
2022/12/25 10:46:51;;;;;;;41.03;13.63;;;;;;;5.74;100.00;101140.00;5096178;28;20375;-73
2022/12/25 10:49:20;;;;;;;51.40;14.77;;;;;;;5.71;100.00;101138.47;5108500;28;20038;-73
2022/12/25 10:51:46;;;;;;;52.25;14.23;;;;;;;5.83;100.00;101153.22;5099771;28;20032;-73
2022/12/25 10:54:33;;;;;;;42.65;14.63;;;;;;;5.78;100.00;101152.84;5113229;28;20031;-73
2022/12/25 10:57:00;;;;;;;46.90;14.93;;;;;;;5.83;100.00;101147.06;5105404;28;20094;-73
2022/12/25 10:59:29;;;;;;;43.88;13.82;;;;;;;5.80;100.00;101134.84;5102093;28;20483;-74
2022/12/25 11:02:02;;;;;;;46.03;14.40;;;;;;;5.85;100.00;101140.53;5112584;28;20422;-73
2022/12/25 11:04:28;;;;;;;50.65;15.55;;;;;;;5.81;100.00;101133.84;5102393;28;20031;-73
2022/12/25 11:07:00;;;;;;;62.08;15.38;;;;;;;5.71;100.00;101113.63;5105469;28;20038;-73
2022/12/25 11:09:26;;;;;;;50.83;13.90;;;;;;;5.82;100.00;101129.34;5108981;28;20121;-73
2022/12/25 11:11:52;;;;;;;65.82;15.60;;;;;;;5.86;100.00;101125.34;5098917;28;20115;-73
2022/12/25 11:14:21;;;;;;;74.80;17.73;;;;;;;5.89;100.00;101125.91;5093109;28;20139;-73
2022/12/25 11:16:47;;;;;;;77.43;17.60;;;;;;;5.78;100.00;101120.81;5104356;28;20039;-72
2022/12/25 11:19:31;;;;;;;63.85;16.52;;;;;;;5.92;100.00;101121.22;5103278;28;20028;-72
2022/12/25 11:21:59;;;;;;;67.80;17.05;;;;;;;5.93;100.00;101115.75;5112658;28;20034;-72
2022/12/25 11:24:31;;;;;;;79.68;17.05;;;;;;;5.99;100.00;101103.56;5100337;28;20396;-73
2022/12/25 11:27:03;;;;;;;70.90;16.60;;;;;;;5.85;100.00;101091.63;5095825;28;20043;-72
2022/12/25 11:29:40;;;;;;;64.80;15.65;;;;;;;5.96;100.00;101098.53;5100338;28;20036;-72
2022/12/25 11:32:15;;;;;;;68.32;16.88;;;;;;;6.03;100.00;101086.25;5112898;28;20044;-72
2022/12/25 11:34:42;;;;;;;;;;;;;;;5.99;100.00;101082.19;5103283;28;20096;-72
2022/12/25 11:37:15;;;;;;;65.32;15.32;;;;;;;5.99;100.00;101080.34;5103971;28;19951;-72
2022/12/25 11:39:41;;;;;;;68.53;16.17;;;;;;;5.72;100.00;101033.34;5112254;28;20053;-72
2022/12/25 11:42:06;;;;;;;58.90;15.45;;;;;;;6.02;100.00;101077.38;5098817;28;20099;-72
2022/12/25 11:44:56;;;;;;;78.00;18.20;;;;;;;6.07;100.00;101079.56;5107686;28;20032;-72
2022/12/25 11:47:29;;;;;;;71.70;17.75;;;;;;;6.13;100.00;101078.09;5109206;28;20107;-72
2022/12/25 11:50:12;;;;;;;66.55;16.27;;;;;;;5.97;100.00;101058.34;5098858;28;20028;-72
2022/12/25 11:52:41;;;;;;;69.15;16.30;;;;;;;5.90;100.00;101041.25;5108961;28;20485;-72
2022/12/25 11:55:20;;;;;;;56.95;15.52;;;;;;;6.11;100.00;101081.75;5108140;28;20031;-72
2022/12/25 11:57:52;;;;;;;62.58;15.50;;;;;;;6.07;100.00;101068.88;5098863;28;20028;-73
2022/12/25 12:00:18;;;;;;;59.72;16.83;;;;;;;6.05;100.00;101077.03;5112129;28;20032;-72
2022/12/25 12:03:02;;;;;;;54.45;15.65;;;;;;;5.97;100.00;101066.34;5103620;28;20079;-73
2022/12/25 12:05:37;;;;;;;42.50;13.98;;;;;;;6.01;100.00;101080.22;5100457;28;20529;-72
2022/12/25 12:08:05;;;;;;;51.00;15.43;;;;;;;5.98;100.00;101076.03;5112114;28;20435;-72
2022/12/25 12:11:14;;;;;;;43.08;14.57;;;;;;;6.06;100.00;101077.88;5101917;28;20034;-72
2022/12/25 12:13:42;;;;;;;43.83;15.02;;;;;;;6.14;100.00;101074.41;5099965;28;20441;-73
2022/12/25 12:16:09;;;;;;;49.03;15.15;;;;;;;6.08;100.00;101063.38;5111828;28;20048;-72
2022/12/25 12:18:35;;;;;;;47.15;14.02;;;;;;;6.16;100.00;101069.72;5102616;28;20043;-73
2022/12/25 12:21:05;;;;;;;37.00;13.18;;;;;;;6.18;100.00;101046.34;5106328;28;20115;-72
2022/12/25 12:24:02;;;;;;;35.90;12.82;;;;;;;6.18;100.00;101039.16;5097170;28;20395;-71
2022/12/25 12:26:33;;;;;;;33.33;11.25;;;;;;;6.27;100.00;101064.06;5088154;28;20055;-71
2022/12/25 12:29:01;;;;;;;30.05;11.35;;;;;;;6.23;100.00;101060.91;5107199;28;20024;-73
2022/12/25 12:31:46;;;;;;;23.98;10.48;;;;;;;6.21;100.00;101060.22;5110003;28;20032;-72
2022/12/25 12:34:24;;;;;;;24.60;9.95;;;;;;;6.25;100.00;101058.88;5084022;28;20039;-72
2022/12/25 12:36:53;;;;;;;18.30;8.85;;;;;;;6.23;100.00;101052.88;5107615;28;20045;-72
2022/12/25 12:39:25;;;;;;;20.58;8.23;;;;;;;6.23;100.00;101049.38;5110742;28;20031;-72
2022/12/25 12:41:51;;;;;;;14.05;6.95;;;;;;;6.30;100.00;101053.06;5100133;28;20049;-72
2022/12/25 12:44:18;;;;;;;14.00;7.22;;;;;;;6.29;100.00;101051.38;5112864;28;20043;-72
2022/12/25 12:46:55;;;;;;;10.20;6.20;;;;;;;6.20;100.00;101021.16;5097417;28;20073;-72
2022/12/25 12:49:22;;;;;;;16.98;6.65;;;;;;;6.36;100.00;101041.72;5108655;28;20137;-72
2022/12/25 12:51:49;;;;;;;16.65;7.78;;;;;;;6.42;100.00;101038.34;5114270;28;20051;-72
2022/12/25 12:54:34;;;;;;;12.20;6.40;;;;;;;6.42;100.00;101046.38;5084907;28;20491;-72
2022/12/25 12:57:05;;;;;;;9.02;5.18;;;;;;;6.37;100.00;101037.19;5105111;28;20038;-71
2022/12/25 12:59:38;;;;;;;10.00;5.30;;;;;;;6.31;100.00;101028.00;5105575;28;20035;-72
2022/12/25 13:02:32;;;;;;;8.43;4.95;;;;;;;6.45;100.00;101032.69;5114437;28;20523;-75
2022/12/25 13:04:57;;;;;;;9.77;5.15;;;;;;;6.46;100.00;101030.88;5107839;28;20032;-74
2022/12/25 13:07:52;;;;;;;8.00;3.95;;;;;;;6.33;100.00;101015.31;5103333;28;20501;-74
2022/12/25 13:10:20;;;;;;;9.93;4.82;;;;;;;6.44;100.00;101023.00;5084557;28;20024;-73
2022/12/25 13:12:51;;;;;;;7.38;3.97;;;;;;;6.43;100.00;101026.69;5107060;28;20031;-71
2022/12/25 13:15:17;;;;;;;7.65;4.53;;;;;;;6.47;100.00;101030.69;5105714;28;20096;-70
2022/12/25 13:17:44;;;;;;;7.68;4.45;;;;;;;6.35;100.00;101013.28;5099311;28;20036;-70